sensor_id;sensor_type;location;lat;lon;timestamp;P1;durP1;ratioP1;P2;durP2;ratioP2
79747;SDS011;69232;47.488;19.268;2023-05-16T00:00:34;10.20;;;6.70;;
79747;SDS011;69232;47.488;19.268;2023-05-16T00:03:01;10.90;;;6.47;;
79747;SDS011;69232;47.488;19.268;2023-05-16T00:05:27;9.95;;;6.45;;
79747;SDS011;69232;47.488;19.268;2023-05-16T00:07:52;11.80;;;7.22;;
79747;SDS011;69232;47.488;19.268;2023-05-16T00:10:18;9.98;;;6.75;;
79747;SDS011;69232;47.488;19.268;2023-05-16T00:12:43;10.23;;;6.38;;
79747;SDS011;69232;47.488;19.268;2023-05-16T00:15:09;11.02;;;7.03;;
79747;SDS011;69232;47.488;19.268;2023-05-16T00:17:38;10.30;;;5.95;;
79747;SDS011;69232;47.488;19.268;2023-05-16T00:20:05;9.70;;;6.57;;
79747;SDS011;69232;47.488;19.268;2023-05-16T00:22:36;11.05;;;7.05;;
79747;SDS011;69232;47.488;19.268;2023-05-16T00:25:02;10.75;;;7.28;;
79747;SDS011;69232;47.488;19.268;2023-05-16T00:27:28;11.45;;;6.82;;
79747;SDS011;69232;47.488;19.268;2023-05-16T00:29:53;12.80;;;8.13;;
79747;SDS011;69232;47.488;19.268;2023-05-16T00:32:19;13.13;;;8.07;;
79747;SDS011;69232;47.488;19.268;2023-05-16T00:34:44;10.45;;;6.85;;
79747;SDS011;69232;47.488;19.268;2023-05-16T00:37:10;9.88;;;6.57;;
79747;SDS011;69232;47.488;19.268;2023-05-16T00:39:35;13.82;;;7.55;;
79747;SDS011;69232;47.488;19.268;2023-05-16T00:42:00;11.63;;;7.68;;
79747;SDS011;69232;47.488;19.268;2023-05-16T00:44:26;17.23;;;9.50;;
79747;SDS011;69232;47.488;19.268;2023-05-16T00:46:52;16.95;;;10.13;;
79747;SDS011;69232;47.488;19.268;2023-05-16T00:49:18;21.92;;;11.05;;
79747;SDS011;69232;47.488;19.268;2023-05-16T00:51:43;17.17;;;10.25;;
79747;SDS011;69232;47.488;19.268;2023-05-16T00:54:09;16.30;;;8.60;;
79747;SDS011;69232;47.488;19.268;2023-05-16T00:56:34;15.60;;;8.95;;
79747;SDS011;69232;47.488;19.268;2023-05-16T00:59:00;13.70;;;8.27;;
79747;SDS011;69232;47.488;19.268;2023-05-16T01:01:26;14.35;;;9.27;;
79747;SDS011;69232;47.488;19.268;2023-05-16T01:03:52;16.75;;;9.90;;
79747;SDS011;69232;47.488;19.268;2023-05-16T01:06:18;13.38;;;8.50;;
79747;SDS011;69232;47.488;19.268;2023-05-16T01:08:43;14.98;;;8.77;;
79747;SDS011;69232;47.488;19.268;2023-05-16T01:19:46;12.75;;;8.02;;
79747;SDS011;69232;47.488;19.268;2023-05-16T01:22:29;14.93;;;8.48;;
79747;SDS011;69232;47.488;19.268;2023-05-16T01:27:46;12.77;;;8.13;;
79747;SDS011;69232;47.488;19.268;2023-05-16T01:30:13;15.25;;;8.73;;
79747;SDS011;69232;47.488;19.268;2023-05-16T01:32:43;13.98;;;8.23;;
79747;SDS011;69232;47.488;19.268;2023-05-16T01:35:09;13.88;;;8.77;;
79747;SDS011;69232;47.488;19.268;2023-05-16T01:37:37;17.50;;;9.68;;
79747;SDS011;69232;47.488;19.268;2023-05-16T01:42:32;14.25;;;7.93;;
79747;SDS011;69232;47.488;19.268;2023-05-16T01:45:09;13.48;;;8.68;;
79747;SDS011;69232;47.488;19.268;2023-05-16T01:47:39;18.40;;;10.27;;
79747;SDS011;69232;47.488;19.268;2023-05-16T01:50:09;15.55;;;8.65;;
79747;SDS011;69232;47.488;19.268;2023-05-16T01:55:14;12.05;;;7.32;;
79747;SDS011;69232;47.488;19.268;2023-05-16T01:57:41;14.18;;;8.88;;
79747;SDS011;69232;47.488;19.268;2023-05-16T02:00:07;13.70;;;8.10;;
79747;SDS011;69232;47.488;19.268;2023-05-16T02:02:32;10.98;;;6.65;;
79747;SDS011;69232;47.488;19.268;2023-05-16T02:04:58;7.68;;;5.13;;
79747;SDS011;69232;47.488;19.268;2023-05-16T02:07:23;6.88;;;4.47;;
79747;SDS011;69232;47.488;19.268;2023-05-16T02:09:49;6.85;;;5.22;;
79747;SDS011;69232;47.488;19.268;2023-05-16T02:12:14;9.90;;;5.47;;
79747;SDS011;69232;47.488;19.268;2023-05-16T02:14:40;8.85;;;4.97;;
79747;SDS011;69232;47.488;19.268;2023-05-16T02:17:05;9.07;;;6.25;;
79747;SDS011;69232;47.488;19.268;2023-05-16T02:19:31;9.13;;;5.60;;
79747;SDS011;69232;47.488;19.268;2023-05-16T02:21:56;8.35;;;5.30;;
79747;SDS011;69232;47.488;19.268;2023-05-16T02:24:22;7.85;;;5.10;;
79747;SDS011;69232;47.488;19.268;2023-05-16T02:26:47;7.03;;;5.05;;
79747;SDS011;69232;47.488;19.268;2023-05-16T02:29:13;7.00;;;5.20;;
79747;SDS011;69232;47.488;19.268;2023-05-16T02:31:40;8.73;;;5.45;;
79747;SDS011;69232;47.488;19.268;2023-05-16T02:34:06;8.63;;;5.68;;
79747;SDS011;69232;47.488;19.268;2023-05-16T02:36:32;8.32;;;5.43;;
79747;SDS011;69232;47.488;19.268;2023-05-16T02:38:59;9.73;;;5.32;;
79747;SDS011;69232;47.488;19.268;2023-05-16T02:41:26;10.57;;;5.20;;
79747;SDS011;69232;47.488;19.268;2023-05-16T02:43:51;8.73;;;5.22;;
79747;SDS011;69232;47.488;19.268;2023-05-16T02:46:31;6.35;;;4.22;;
79747;SDS011;69232;47.488;19.268;2023-05-16T02:48:58;6.25;;;3.83;;
79747;SDS011;69232;47.488;19.268;2023-05-16T02:51:24;10.30;;;4.50;;
79747;SDS011;69232;47.488;19.268;2023-05-16T02:53:51;7.50;;;3.72;;
79747;SDS011;69232;47.488;19.268;2023-05-16T02:56:17;6.05;;;4.28;;
79747;SDS011;69232;47.488;19.268;2023-05-16T02:58:45;5.30;;;3.95;;
79747;SDS011;69232;47.488;19.268;2023-05-16T03:01:12;5.47;;;4.13;;
79747;SDS011;69232;47.488;19.268;2023-05-16T03:03:37;7.63;;;4.35;;
79747;SDS011;69232;47.488;19.268;2023-05-16T03:06:03;8.43;;;5.60;;
79747;SDS011;69232;47.488;19.268;2023-05-16T03:08:28;5.82;;;4.63;;
79747;SDS011;69232;47.488;19.268;2023-05-16T03:10:54;6.25;;;4.40;;
79747;SDS011;69232;47.488;19.268;2023-05-16T03:13:19;8.60;;;4.75;;
79747;SDS011;69232;47.488;19.268;2023-05-16T03:15:45;6.20;;;3.95;;
79747;SDS011;69232;47.488;19.268;2023-05-16T03:18:10;5.72;;;3.63;;
79747;SDS011;69232;47.488;19.268;2023-05-16T03:20:38;5.10;;;3.88;;
79747;SDS011;69232;47.488;19.268;2023-05-16T03:23:04;5.40;;;4.07;;
79747;SDS011;69232;47.488;19.268;2023-05-16T03:25:35;6.40;;;4.40;;
79747;SDS011;69232;47.488;19.268;2023-05-16T03:28:02;5.88;;;4.32;;
79747;SDS011;69232;47.488;19.268;2023-05-16T03:30:28;6.65;;;4.72;;
79747;SDS011;69232;47.488;19.268;2023-05-16T03:32:54;7.35;;;4.57;;
79747;SDS011;69232;47.488;19.268;2023-05-16T03:35:20;8.18;;;4.93;;
79747;SDS011;69232;47.488;19.268;2023-05-16T03:37:45;9.52;;;4.80;;
79747;SDS011;69232;47.488;19.268;2023-05-16T03:40:10;6.07;;;4.35;;
79747;SDS011;69232;47.488;19.268;2023-05-16T03:42:36;5.95;;;4.28;;
79747;SDS011;69232;47.488;19.268;2023-05-16T03:45:03;7.72;;;5.18;;
79747;SDS011;69232;47.488;19.268;2023-05-16T03:47:30;8.38;;;5.10;;
79747;SDS011;69232;47.488;19.268;2023-05-16T03:49:56;7.70;;;5.30;;
79747;SDS011;69232;47.488;19.268;2023-05-16T03:52:21;13.30;;;6.25;;
79747;SDS011;69232;47.488;19.268;2023-05-16T03:54:47;10.10;;;5.60;;
79747;SDS011;69232;47.488;19.268;2023-05-16T03:57:12;9.48;;;6.32;;
79747;SDS011;69232;47.488;19.268;2023-05-16T03:59:38;10.32;;;5.15;;
79747;SDS011;69232;47.488;19.268;2023-05-16T04:02:03;10.80;;;4.88;;
79747;SDS011;69232;47.488;19.268;2023-05-16T04:04:29;9.27;;;4.72;;
79747;SDS011;69232;47.488;19.268;2023-05-16T04:06:55;8.18;;;4.72;;
79747;SDS011;69232;47.488;19.268;2023-05-16T04:09:20;6.90;;;4.47;;
79747;SDS011;69232;47.488;19.268;2023-05-16T04:11:46;9.27;;;5.70;;
79747;SDS011;69232;47.488;19.268;2023-05-16T04:14:12;10.50;;;7.10;;
79747;SDS011;69232;47.488;19.268;2023-05-16T04:16:37;9.68;;;6.22;;
79747;SDS011;69232;47.488;19.268;2023-05-16T04:19:03;9.80;;;6.93;;
79747;SDS011;69232;47.488;19.268;2023-05-16T04:21:28;9.23;;;6.35;;
79747;SDS011;69232;47.488;19.268;2023-05-16T04:23:54;11.93;;;7.90;;
79747;SDS011;69232;47.488;19.268;2023-05-16T04:26:19;11.00;;;8.07;;
79747;SDS011;69232;47.488;19.268;2023-05-16T04:28:46;13.60;;;8.07;;
79747;SDS011;69232;47.488;19.268;2023-05-16T04:31:12;11.60;;;7.50;;
79747;SDS011;69232;47.488;19.268;2023-05-16T04:33:38;13.75;;;8.65;;
79747;SDS011;69232;47.488;19.268;2023-05-16T04:36:04;12.18;;;7.38;;
79747;SDS011;69232;47.488;19.268;2023-05-16T04:38:30;13.77;;;7.32;;
79747;SDS011;69232;47.488;19.268;2023-05-16T04:40:56;13.85;;;8.38;;
79747;SDS011;69232;47.488;19.268;2023-05-16T04:43:22;12.57;;;8.05;;
79747;SDS011;69232;47.488;19.268;2023-05-16T04:45:48;15.93;;;7.72;;
79747;SDS011;69232;47.488;19.268;2023-05-16T04:48:13;14.85;;;8.35;;
79747;SDS011;69232;47.488;19.268;2023-05-16T04:50:39;13.40;;;7.63;;
79747;SDS011;69232;47.488;19.268;2023-05-16T04:53:05;13.55;;;7.55;;
79747;SDS011;69232;47.488;19.268;2023-05-16T04:55:30;17.17;;;7.93;;
79747;SDS011;69232;47.488;19.268;2023-05-16T04:57:56;13.18;;;7.95;;
79747;SDS011;69232;47.488;19.268;2023-05-16T05:00:21;17.67;;;8.63;;
79747;SDS011;69232;47.488;19.268;2023-05-16T05:02:47;15.13;;;8.45;;
79747;SDS011;69232;47.488;19.268;2023-05-16T05:05:12;14.50;;;7.13;;
79747;SDS011;69232;47.488;19.268;2023-05-16T05:07:38;15.13;;;8.07;;
79747;SDS011;69232;47.488;19.268;2023-05-16T05:10:04;14.85;;;7.95;;
79747;SDS011;69232;47.488;19.268;2023-05-16T05:12:31;14.48;;;8.88;;
79747;SDS011;69232;47.488;19.268;2023-05-16T05:14:57;13.48;;;7.38;;
79747;SDS011;69232;47.488;19.268;2023-05-16T05:17:22;13.70;;;7.65;;
79747;SDS011;69232;47.488;19.268;2023-05-16T05:19:48;14.82;;;7.90;;
79747;SDS011;69232;47.488;19.268;2023-05-16T05:22:13;16.45;;;8.90;;
79747;SDS011;69232;47.488;19.268;2023-05-16T05:24:39;16.23;;;7.70;;
79747;SDS011;69232;47.488;19.268;2023-05-16T05:27:04;12.70;;;7.55;;
79747;SDS011;69232;47.488;19.268;2023-05-16T05:29:30;14.75;;;7.78;;
79747;SDS011;69232;47.488;19.268;2023-05-16T05:31:55;13.85;;;7.35;;
79747;SDS011;69232;47.488;19.268;2023-05-16T05:34:21;11.35;;;7.13;;
79747;SDS011;69232;47.488;19.268;2023-05-16T05:36:46;13.00;;;7.70;;
79747;SDS011;69232;47.488;19.268;2023-05-16T05:39:12;13.38;;;8.18;;
79747;SDS011;69232;47.488;19.268;2023-05-16T05:41:37;14.50;;;7.97;;
79747;SDS011;69232;47.488;19.268;2023-05-16T05:44:04;13.18;;;7.03;;
79747;SDS011;69232;47.488;19.268;2023-05-16T05:46:29;14.02;;;7.00;;
79747;SDS011;69232;47.488;19.268;2023-05-16T05:48:55;12.38;;;7.80;;
79747;SDS011;69232;47.488;19.268;2023-05-16T05:51:20;12.45;;;7.40;;
79747;SDS011;69232;47.488;19.268;2023-05-16T05:53:46;14.15;;;7.93;;
79747;SDS011;69232;47.488;19.268;2023-05-16T05:56:11;13.68;;;8.13;;
79747;SDS011;69232;47.488;19.268;2023-05-16T05:58:37;12.93;;;7.50;;
79747;SDS011;69232;47.488;19.268;2023-05-16T06:01:03;13.90;;;8.00;;
79747;SDS011;69232;47.488;19.268;2023-05-16T06:03:28;14.27;;;7.85;;
79747;SDS011;69232;47.488;19.268;2023-05-16T06:05:53;13.30;;;7.97;;
79747;SDS011;69232;47.488;19.268;2023-05-16T06:08:19;16.73;;;8.43;;
79747;SDS011;69232;47.488;19.268;2023-05-16T06:10:44;14.02;;;7.82;;
79747;SDS011;69232;47.488;19.268;2023-05-16T06:13:10;15.27;;;8.70;;
79747;SDS011;69232;47.488;19.268;2023-05-16T06:15:35;18.15;;;10.18;;
79747;SDS011;69232;47.488;19.268;2023-05-16T06:18:01;18.52;;;9.23;;
79747;SDS011;69232;47.488;19.268;2023-05-16T06:20:26;17.80;;;8.07;;
79747;SDS011;69232;47.488;19.268;2023-05-16T06:22:52;17.30;;;8.57;;
79747;SDS011;69232;47.488;19.268;2023-05-16T06:25:17;14.07;;;7.93;;
79747;SDS011;69232;47.488;19.268;2023-05-16T06:27:43;17.83;;;9.18;;
79747;SDS011;69232;47.488;19.268;2023-05-16T06:30:09;18.52;;;9.57;;
79747;SDS011;69232;47.488;19.268;2023-05-16T06:32:35;17.58;;;7.75;;
79747;SDS011;69232;47.488;19.268;2023-05-16T06:35:00;18.67;;;8.63;;
79747;SDS011;69232;47.488;19.268;2023-05-16T06:37:26;18.20;;;8.90;;
79747;SDS011;69232;47.488;19.268;2023-05-16T06:39:51;16.75;;;8.05;;
79747;SDS011;69232;47.488;19.268;2023-05-16T06:42:16;20.38;;;10.00;;
79747;SDS011;69232;47.488;19.268;2023-05-16T06:44:43;19.13;;;9.85;;
79747;SDS011;69232;47.488;19.268;2023-05-16T06:47:08;18.60;;;9.10;;
79747;SDS011;69232;47.488;19.268;2023-05-16T06:49:34;21.52;;;10.02;;
79747;SDS011;69232;47.488;19.268;2023-05-16T06:51:59;17.08;;;8.45;;
79747;SDS011;69232;47.488;19.268;2023-05-16T06:54:25;18.35;;;9.40;;
79747;SDS011;69232;47.488;19.268;2023-05-16T06:56:50;21.60;;;8.98;;
79747;SDS011;69232;47.488;19.268;2023-05-16T06:59:16;18.40;;;8.73;;
79747;SDS011;69232;47.488;19.268;2023-05-16T07:01:41;21.60;;;9.90;;
79747;SDS011;69232;47.488;19.268;2023-05-16T07:04:06;20.23;;;9.90;;
79747;SDS011;69232;47.488;19.268;2023-05-16T07:06:32;19.85;;;8.95;;
79747;SDS011;69232;47.488;19.268;2023-05-16T07:08:57;16.00;;;8.88;;
79747;SDS011;69232;47.488;19.268;2023-05-16T07:11:23;22.15;;;10.00;;
79747;SDS011;69232;47.488;19.268;2023-05-16T07:13:48;19.27;;;9.38;;
79747;SDS011;69232;47.488;19.268;2023-05-16T07:16:14;19.17;;;9.10;;
79747;SDS011;69232;47.488;19.268;2023-05-16T07:18:39;19.15;;;9.00;;
79747;SDS011;69232;47.488;19.268;2023-05-16T07:21:04;19.42;;;9.70;;
79747;SDS011;69232;47.488;19.268;2023-05-16T07:23:30;23.35;;;10.70;;
79747;SDS011;69232;47.488;19.268;2023-05-16T07:25:56;27.83;;;11.57;;
79747;SDS011;69232;47.488;19.268;2023-05-16T07:28:21;30.25;;;12.00;;
79747;SDS011;69232;47.488;19.268;2023-05-16T07:30:47;32.63;;;12.00;;
79747;SDS011;69232;47.488;19.268;2023-05-16T07:33:13;31.55;;;12.60;;
79747;SDS011;69232;47.488;19.268;2023-05-16T07:35:38;30.73;;;12.60;;
79747;SDS011;69232;47.488;19.268;2023-05-16T07:38:04;29.40;;;11.90;;
79747;SDS011;69232;47.488;19.268;2023-05-16T07:40:29;29.50;;;12.10;;
79747;SDS011;69232;47.488;19.268;2023-05-16T07:42:55;30.20;;;12.70;;
79747;SDS011;69232;47.488;19.268;2023-05-16T07:45:20;31.95;;;12.25;;
79747;SDS011;69232;47.488;19.268;2023-05-16T07:47:46;24.55;;;11.20;;
79747;SDS011;69232;47.488;19.268;2023-05-16T07:50:11;28.83;;;12.60;;
79747;SDS011;69232;47.488;19.268;2023-05-16T07:52:37;29.90;;;11.35;;
79747;SDS011;69232;47.488;19.268;2023-05-16T07:55:02;27.13;;;10.32;;
79747;SDS011;69232;47.488;19.268;2023-05-16T07:57:28;25.13;;;10.32;;
79747;SDS011;69232;47.488;19.268;2023-05-16T07:59:54;29.48;;;10.07;;
79747;SDS011;69232;47.488;19.268;2023-05-16T08:02:20;20.67;;;9.50;;
79747;SDS011;69232;47.488;19.268;2023-05-16T08:04:46;20.67;;;8.45;;
79747;SDS011;69232;47.488;19.268;2023-05-16T08:07:13;17.52;;;8.07;;
79747;SDS011;69232;47.488;19.268;2023-05-16T08:09:38;14.85;;;8.43;;
79747;SDS011;69232;47.488;19.268;2023-05-16T08:12:04;13.95;;;6.93;;
79747;SDS011;69232;47.488;19.268;2023-05-16T08:14:30;17.70;;;7.10;;
79747;SDS011;69232;47.488;19.268;2023-05-16T08:16:56;15.82;;;7.05;;
79747;SDS011;69232;47.488;19.268;2023-05-16T08:19:23;12.02;;;5.35;;
79747;SDS011;69232;47.488;19.268;2023-05-16T08:21:48;13.70;;;5.90;;
79747;SDS011;69232;47.488;19.268;2023-05-16T08:24:13;8.85;;;4.90;;
79747;SDS011;69232;47.488;19.268;2023-05-16T08:26:39;8.80;;;4.45;;
79747;SDS011;69232;47.488;19.268;2023-05-16T08:29:04;7.10;;;3.80;;
79747;SDS011;69232;47.488;19.268;2023-05-16T08:31:30;6.38;;;3.75;;
79747;SDS011;69232;47.488;19.268;2023-05-16T08:33:56;9.40;;;4.20;;
79747;SDS011;69232;47.488;19.268;2023-05-16T08:36:22;6.80;;;3.75;;
79747;SDS011;69232;47.488;19.268;2023-05-16T08:38:48;7.45;;;4.22;;
79747;SDS011;69232;47.488;19.268;2023-05-16T08:41:14;6.05;;;3.88;;
79747;SDS011;69232;47.488;19.268;2023-05-16T08:43:39;8.60;;;4.00;;
79747;SDS011;69232;47.488;19.268;2023-05-16T08:46:05;7.82;;;3.83;;
79747;SDS011;69232;47.488;19.268;2023-05-16T08:48:31;8.63;;;4.30;;
79747;SDS011;69232;47.488;19.268;2023-05-16T08:50:58;9.38;;;4.30;;
79747;SDS011;69232;47.488;19.268;2023-05-16T08:53:26;7.88;;;4.80;;
79747;SDS011;69232;47.488;19.268;2023-05-16T08:56:01;10.15;;;4.28;;
79747;SDS011;69232;47.488;19.268;2023-05-16T08:58:27;9.27;;;4.22;;
79747;SDS011;69232;47.488;19.268;2023-05-16T09:00:54;9.23;;;4.40;;
79747;SDS011;69232;47.488;19.268;2023-05-16T09:03:19;6.47;;;3.50;;
79747;SDS011;69232;47.488;19.268;2023-05-16T09:05:47;8.75;;;4.30;;
79747;SDS011;69232;47.488;19.268;2023-05-16T09:08:12;8.57;;;4.47;;
79747;SDS011;69232;47.488;19.268;2023-05-16T09:10:38;6.40;;;3.47;;
79747;SDS011;69232;47.488;19.268;2023-05-16T09:13:03;9.63;;;4.50;;
79747;SDS011;69232;47.488;19.268;2023-05-16T09:15:32;6.95;;;3.47;;
79747;SDS011;69232;47.488;19.268;2023-05-16T09:18:01;7.65;;;4.07;;
79747;SDS011;69232;47.488;19.268;2023-05-16T09:20:27;10.02;;;4.60;;
79747;SDS011;69232;47.488;19.268;2023-05-16T09:22:57;9.25;;;4.55;;
79747;SDS011;69232;47.488;19.268;2023-05-16T09:30:52;10.88;;;4.53;;
79747;SDS011;69232;47.488;19.268;2023-05-16T09:33:21;8.88;;;4.40;;
79747;SDS011;69232;47.488;19.268;2023-05-16T09:35:53;8.80;;;5.40;;
79747;SDS011;69232;47.488;19.268;2023-05-16T09:38:22;6.78;;;4.35;;
79747;SDS011;69232;47.488;19.268;2023-05-16T09:40:49;8.25;;;4.78;;
79747;SDS011;69232;47.488;19.268;2023-05-16T09:43:15;11.63;;;5.95;;
79747;SDS011;69232;47.488;19.268;2023-05-16T09:45:44;10.57;;;5.60;;
79747;SDS011;69232;47.488;19.268;2023-05-16T09:48:11;9.70;;;5.60;;
79747;SDS011;69232;47.488;19.268;2023-05-16T09:50:37;13.05;;;5.57;;
79747;SDS011;69232;47.488;19.268;2023-05-16T09:53:03;13.30;;;6.13;;
79747;SDS011;69232;47.488;19.268;2023-05-16T09:55:29;17.10;;;7.20;;
79747;SDS011;69232;47.488;19.268;2023-05-16T09:57:55;12.85;;;7.22;;
79747;SDS011;69232;47.488;19.268;2023-05-16T10:00:20;11.63;;;5.95;;
79747;SDS011;69232;47.488;19.268;2023-05-16T10:02:46;11.65;;;6.47;;
79747;SDS011;69232;47.488;19.268;2023-05-16T10:05:12;16.38;;;8.02;;
79747;SDS011;69232;47.488;19.268;2023-05-16T10:07:37;15.25;;;8.10;;
79747;SDS011;69232;47.488;19.268;2023-05-16T10:10:07;14.25;;;7.50;;
79747;SDS011;69232;47.488;19.268;2023-05-16T10:12:33;15.60;;;7.30;;
79747;SDS011;69232;47.488;19.268;2023-05-16T10:15:03;15.20;;;6.60;;
79747;SDS011;69232;47.488;19.268;2023-05-16T10:17:30;13.48;;;6.75;;
79747;SDS011;69232;47.488;19.268;2023-05-16T10:19:59;15.43;;;7.70;;
79747;SDS011;69232;47.488;19.268;2023-05-16T10:22:26;11.38;;;6.85;;
79747;SDS011;69232;47.488;19.268;2023-05-16T10:25:27;10.88;;;6.47;;
79747;SDS011;69232;47.488;19.268;2023-05-16T10:27:56;13.88;;;6.57;;
79747;SDS011;69232;47.488;19.268;2023-05-16T10:30:22;13.52;;;5.43;;
79747;SDS011;69232;47.488;19.268;2023-05-16T10:32:47;10.30;;;5.78;;
79747;SDS011;69232;47.488;19.268;2023-05-16T10:35:14;10.00;;;5.70;;
79747;SDS011;69232;47.488;19.268;2023-05-16T10:37:40;11.38;;;6.43;;
79747;SDS011;69232;47.488;19.268;2023-05-16T10:40:06;9.82;;;6.40;;
79747;SDS011;69232;47.488;19.268;2023-05-16T10:42:32;11.50;;;6.13;;
79747;SDS011;69232;47.488;19.268;2023-05-16T10:45:17;11.48;;;6.22;;
79747;SDS011;69232;47.488;19.268;2023-05-16T10:47:50;9.63;;;6.18;;
79747;SDS011;69232;47.488;19.268;2023-05-16T10:50:39;13.20;;;7.07;;
79747;SDS011;69232;47.488;19.268;2023-05-16T10:53:17;10.55;;;5.82;;
79747;SDS011;69232;47.488;19.268;2023-05-16T11:01:15;11.05;;;6.70;;
79747;SDS011;69232;47.488;19.268;2023-05-16T11:06:50;10.15;;;6.45;;
79747;SDS011;69232;47.488;19.268;2023-05-16T11:09:24;10.27;;;6.10;;
79747;SDS011;69232;47.488;19.268;2023-05-16T11:16:53;14.77;;;7.00;;
79747;SDS011;69232;47.488;19.268;2023-05-16T11:20:07;25.75;;;7.32;;
79747;SDS011;69232;47.488;19.268;2023-05-16T11:24:51;10.48;;;6.13;;
79747;SDS011;69232;47.488;19.268;2023-05-16T11:27:35;10.48;;;6.93;;
79747;SDS011;69232;47.488;19.268;2023-05-16T11:32:30;14.65;;;7.25;;
79747;SDS011;69232;47.488;19.268;2023-05-16T11:34:58;15.65;;;7.13;;
79747;SDS011;69232;47.488;19.268;2023-05-16T11:37:23;16.15;;;8.02;;
79747;SDS011;69232;47.488;19.268;2023-05-16T11:39:48;12.93;;;6.65;;
79747;SDS011;69232;47.488;19.268;2023-05-16T11:42:14;13.77;;;7.03;;
79747;SDS011;69232;47.488;19.268;2023-05-16T11:44:40;15.77;;;7.38;;
79747;SDS011;69232;47.488;19.268;2023-05-16T11:47:05;12.82;;;6.72;;
79747;SDS011;69232;47.488;19.268;2023-05-16T11:49:32;11.98;;;6.32;;
79747;SDS011;69232;47.488;19.268;2023-05-16T11:51:57;10.85;;;6.03;;
79747;SDS011;69232;47.488;19.268;2023-05-16T11:54:23;9.10;;;5.70;;
79747;SDS011;69232;47.488;19.268;2023-05-16T11:56:49;10.98;;;5.88;;
79747;SDS011;69232;47.488;19.268;2023-05-16T11:59:18;11.13;;;6.28;;
79747;SDS011;69232;47.488;19.268;2023-05-16T12:01:44;11.85;;;5.93;;
79747;SDS011;69232;47.488;19.268;2023-05-16T12:04:13;10.52;;;6.50;;
79747;SDS011;69232;47.488;19.268;2023-05-16T12:06:40;8.52;;;5.15;;
79747;SDS011;69232;47.488;19.268;2023-05-16T12:09:12;10.02;;;6.43;;
79747;SDS011;69232;47.488;19.268;2023-05-16T12:11:39;9.85;;;5.63;;
79747;SDS011;69232;47.488;19.268;2023-05-16T12:14:06;8.85;;;5.30;;
79747;SDS011;69232;47.488;19.268;2023-05-16T12:16:33;14.70;;;5.90;;
79747;SDS011;69232;47.488;19.268;2023-05-16T12:19:01;12.80;;;5.90;;
79747;SDS011;69232;47.488;19.268;2023-05-16T12:21:28;10.40;;;5.82;;
79747;SDS011;69232;47.488;19.268;2023-05-16T12:23:54;11.40;;;6.10;;
79747;SDS011;69232;47.488;19.268;2023-05-16T12:26:28;9.88;;;5.72;;
79747;SDS011;69232;47.488;19.268;2023-05-16T12:29:00;12.38;;;5.85;;
79747;SDS011;69232;47.488;19.268;2023-05-16T12:31:30;13.77;;;6.65;;
79747;SDS011;69232;47.488;19.268;2023-05-16T12:34:13;9.88;;;5.65;;
79747;SDS011;69232;47.488;19.268;2023-05-16T12:36:40;10.05;;;6.10;;
79747;SDS011;69232;47.488;19.268;2023-05-16T12:39:06;10.48;;;6.03;;
79747;SDS011;69232;47.488;19.268;2023-05-16T12:41:32;15.85;;;6.30;;
79747;SDS011;69232;47.488;19.268;2023-05-16T12:44:09;10.63;;;6.57;;
79747;SDS011;69232;47.488;19.268;2023-05-16T12:46:41;15.65;;;6.15;;
79747;SDS011;69232;47.488;19.268;2023-05-16T12:49:10;9.75;;;6.18;;
79747;SDS011;69232;47.488;19.268;2023-05-16T12:51:36;9.85;;;6.05;;
79747;SDS011;69232;47.488;19.268;2023-05-16T12:54:11;13.23;;;6.70;;
79747;SDS011;69232;47.488;19.268;2023-05-16T12:56:40;11.20;;;5.85;;
79747;SDS011;69232;47.488;19.268;2023-05-16T12:59:06;13.65;;;6.15;;
79747;SDS011;69232;47.488;19.268;2023-05-16T13:01:32;10.63;;;5.82;;
79747;SDS011;69232;47.488;19.268;2023-05-16T13:03:59;8.30;;;5.75;;
79747;SDS011;69232;47.488;19.268;2023-05-16T13:06:25;11.75;;;6.03;;
79747;SDS011;69232;47.488;19.268;2023-05-16T13:08:50;10.23;;;6.38;;
79747;SDS011;69232;47.488;19.268;2023-05-16T13:11:16;11.95;;;5.57;;
79747;SDS011;69232;47.488;19.268;2023-05-16T13:13:42;12.35;;;6.35;;
79747;SDS011;69232;47.488;19.268;2023-05-16T13:16:08;11.32;;;6.10;;
79747;SDS011;69232;47.488;19.268;2023-05-16T13:18:34;13.15;;;6.63;;
79747;SDS011;69232;47.488;19.268;2023-05-16T13:21:00;13.30;;;6.72;;
79747;SDS011;69232;47.488;19.268;2023-05-16T13:23:27;11.50;;;6.50;;
79747;SDS011;69232;47.488;19.268;2023-05-16T13:25:53;12.52;;;7.10;;
79747;SDS011;69232;47.488;19.268;2023-05-16T13:28:19;12.15;;;6.47;;
79747;SDS011;69232;47.488;19.268;2023-05-16T13:30:45;17.25;;;6.80;;
79747;SDS011;69232;47.488;19.268;2023-05-16T13:33:10;10.27;;;6.25;;
79747;SDS011;69232;47.488;19.268;2023-05-16T13:35:36;15.30;;;7.07;;
79747;SDS011;69232;47.488;19.268;2023-05-16T13:38:02;11.93;;;6.97;;
79747;SDS011;69232;47.488;19.268;2023-05-16T13:40:28;7.63;;;6.07;;
79747;SDS011;69232;47.488;19.268;2023-05-16T13:42:53;13.15;;;6.40;;
79747;SDS011;69232;47.488;19.268;2023-05-16T13:45:19;15.07;;;6.00;;
79747;SDS011;69232;47.488;19.268;2023-05-16T13:47:44;9.93;;;5.65;;
79747;SDS011;69232;47.488;19.268;2023-05-16T13:50:10;10.52;;;6.38;;
79747;SDS011;69232;47.488;19.268;2023-05-16T13:52:36;11.43;;;6.55;;
79747;SDS011;69232;47.488;19.268;2023-05-16T13:55:02;10.05;;;6.53;;
79747;SDS011;69232;47.488;19.268;2023-05-16T13:57:28;10.57;;;6.57;;
79747;SDS011;69232;47.488;19.268;2023-05-16T13:59:53;12.55;;;6.88;;
79747;SDS011;69232;47.488;19.268;2023-05-16T14:02:19;10.93;;;6.13;;
79747;SDS011;69232;47.488;19.268;2023-05-16T14:04:44;10.55;;;6.15;;
79747;SDS011;69232;47.488;19.268;2023-05-16T14:07:10;14.75;;;6.57;;
79747;SDS011;69232;47.488;19.268;2023-05-16T14:09:35;11.68;;;6.38;;
79747;SDS011;69232;47.488;19.268;2023-05-16T14:12:04;11.90;;;5.97;;
79747;SDS011;69232;47.488;19.268;2023-05-16T14:14:31;9.77;;;4.95;;
79747;SDS011;69232;47.488;19.268;2023-05-16T14:16:57;12.30;;;5.80;;
79747;SDS011;69232;47.488;19.268;2023-05-16T14:19:23;15.15;;;5.93;;
79747;SDS011;69232;47.488;19.268;2023-05-16T14:21:49;11.98;;;6.25;;
79747;SDS011;69232;47.488;19.268;2023-05-16T14:24:14;11.63;;;6.70;;
79747;SDS011;69232;47.488;19.268;2023-05-16T14:26:40;11.70;;;6.50;;
79747;SDS011;69232;47.488;19.268;2023-05-16T14:29:05;9.35;;;6.20;;
79747;SDS011;69232;47.488;19.268;2023-05-16T14:31:31;13.27;;;6.47;;
79747;SDS011;69232;47.488;19.268;2023-05-16T14:33:56;12.57;;;6.82;;
79747;SDS011;69232;47.488;19.268;2023-05-16T14:36:23;13.27;;;6.32;;
79747;SDS011;69232;47.488;19.268;2023-05-16T14:38:48;14.85;;;7.32;;
79747;SDS011;69232;47.488;19.268;2023-05-16T14:41:14;15.32;;;7.85;;
79747;SDS011;69232;47.488;19.268;2023-05-16T14:43:40;10.25;;;6.28;;
79747;SDS011;69232;47.488;19.268;2023-05-16T14:46:05;13.60;;;7.78;;
79747;SDS011;69232;47.488;19.268;2023-05-16T14:48:31;10.73;;;6.13;;
79747;SDS011;69232;47.488;19.268;2023-05-16T14:50:57;14.07;;;6.60;;
79747;SDS011;69232;47.488;19.268;2023-05-16T14:53:23;12.68;;;7.30;;
79747;SDS011;69232;47.488;19.268;2023-05-16T14:55:48;12.02;;;6.53;;
79747;SDS011;69232;47.488;19.268;2023-05-16T14:58:14;11.32;;;6.90;;
79747;SDS011;69232;47.488;19.268;2023-05-16T15:00:39;10.40;;;6.32;;